Time;durP1;ratioP1;P1;durP2;ratioP2;P2;SDS_P1;SDS_P2;PMS_P1;PMS_P2;Temp;Humidity;BMP_temperature;BMP_pressure;BME280_temperature;BME280_humidity;BME280_pressure;Samples;Min_cycle;Max_cycle;Signal;HPM_P1;HPM_P2
2021/05/20 00:01:26;;;;;;;1.50;1.10;;;10.90;98.20;;;;;;4985026;28;20857;-80
2021/05/20 00:03:52;;;;;;;1.60;1.30;;;10.90;98.20;;;;;;4998146;28;20906;-80
2021/05/20 00:06:21;;;;;;;1.57;1.10;;;10.90;98.20;;;;;;4980179;28;20468;-80
2021/05/20 00:08:47;;;;;;;1.50;1.13;;;10.90;98.20;;;;;;5001262;28;20469;-80
2021/05/20 00:11:13;;;;;;;1.50;1.10;;;10.90;98.20;;;;;;4980601;28;20925;-80
2021/05/20 00:13:40;;;;;;;1.50;1.10;;;10.90;98.20;;;;;;4997553;28;20469;-80
2021/05/20 00:16:07;;;;;;;1.50;1.03;;;10.90;98.20;;;;;;4978888;28;20594;-80
2021/05/20 00:18:33;;;;;;;1.50;1.10;;;10.90;98.20;;;;;;4986824;28;20617;-80
2021/05/20 00:21:00;;;;;;;1.50;1.00;;;10.90;98.20;;;;;;4983372;28;20488;-80
2021/05/20 00:23:26;;;;;;;1.50;1.10;;;11.00;98.20;;;;;;5003225;28;20468;-80
2021/05/20 00:25:52;;;;;;;1.50;1.10;;;11.00;98.20;;;;;;4980395;28;20479;-80
2021/05/20 00:28:18;;;;;;;1.50;1.10;;;11.00;98.20;;;;;;5002199;28;20465;-80
2021/05/20 00:30:45;;;;;;;1.50;1.00;;;11.00;98.20;;;;;;4990115;28;20497;-80
2021/05/20 00:33:12;;;;;;;1.50;1.00;;;11.00;98.20;;;;;;4979253;28;20492;-80
2021/05/20 00:38:25;;;;;;;1.50;1.10;;;10.90;98.20;;;;;;4966565;28;20481;-80
2021/05/20 00:40:57;;;;;;;1.50;1.03;;;10.90;98.20;;;;;;4980339;28;20500;-80
2021/05/20 00:43:23;;;;;;;1.50;1.10;;;10.90;98.20;;;;;;4999879;28;20841;-80
2021/05/20 00:45:49;;;;;;;1.50;1.10;;;10.90;98.20;;;;;;4976921;28;20469;-80
2021/05/20 00:48:16;;;;;;;1.50;1.10;;;10.80;98.20;;;;;;4998025;28;20535;-80
2021/05/20 00:50:43;;;;;;;1.50;1.10;;;10.80;98.20;;;;;;4991098;28;20481;-80
2021/05/20 00:53:11;;;;;;;1.57;1.10;;;10.80;98.20;;;;;;4994216;28;20481;-80
2021/05/20 00:55:38;;;;;;;1.50;1.10;;;10.80;98.20;;;;;;4991124;28;20469;-80
2021/05/20 00:58:06;;;;;;;1.53;1.10;;;10.80;98.20;;;;;;4990700;28;20481;-80
2021/05/20 01:00:33;;;;;;;1.50;1.00;;;10.80;98.20;;;;;;4990512;28;20519;-80
2021/05/20 01:02:59;;;;;;;1.57;1.20;;;10.80;98.20;;;;;;4991419;28;20527;-80
2021/05/20 01:05:27;;;;;;;1.50;1.10;;;10.80;98.20;;;;;;4993326;28;20464;-80
2021/05/20 01:07:53;;;;;;;1.50;1.10;;;10.80;98.20;;;;;;4980666;28;20639;-80
2021/05/20 01:10:19;;;;;;;1.50;1.10;;;10.80;98.20;;;;;;4991960;28;20490;-80
2021/05/20 01:12:46;;;;;;;1.57;1.20;;;10.80;98.20;;;;;;4991522;28;20484;-80
2021/05/20 01:15:23;;;;;;;1.50;1.10;;;10.80;98.20;;;;;;4992858;28;20841;-80
2021/05/20 01:17:51;;;;;;;1.50;1.10;;;10.80;98.20;;;;;;4998315;28;20486;-80
2021/05/20 01:20:21;;;;;;;1.50;1.10;;;10.70;98.20;;;;;;4992373;28;21011;-80
2021/05/20 01:22:47;;;;;;;1.50;1.10;;;10.70;98.20;;;;;;4992416;28;21204;-80
2021/05/20 01:25:14;;;;;;;1.50;1.10;;;10.70;98.20;;;;;;4993961;28;20461;-80
2021/05/20 01:27:43;;;;;;;1.50;1.00;;;10.70;98.20;;;;;;4989050;28;20488;-80
2021/05/20 01:30:10;;;;;;;1.50;1.10;;;10.70;98.20;;;;;;4990258;28;21020;-80
2021/05/20 01:32:37;;;;;;;1.57;1.10;;;10.70;98.20;;;;;;4996251;28;20831;-80
2021/05/20 01:35:05;;;;;;;1.50;1.10;;;10.70;98.20;;;;;;4993641;28;20457;-80
2021/05/20 01:37:32;;;;;;;1.50;1.10;;;10.70;98.20;;;;;;4976662;28;20484;-79
2021/05/20 01:39:59;;;;;;;1.50;1.10;;;10.70;98.20;;;;;;4986235;28;20867;-79
2021/05/20 01:42:25;;;;;;;1.50;1.10;;;10.70;98.20;;;;;;4995040;28;20491;-80
2021/05/20 01:44:53;;;;;;;1.50;1.10;;;10.70;98.20;;;;;;4996613;28;20460;-80
2021/05/20 01:47:19;;;;;;;1.50;1.10;;;10.70;98.20;;;;;;4989437;28;20490;-80
2021/05/20 01:49:51;;;;;;;1.50;1.10;;;10.60;98.20;;;;;;4993454;28;20477;-80
2021/05/20 01:52:18;;;;;;;1.50;1.10;;;10.60;98.20;;;;;;4992715;28;20487;-80
2021/05/20 01:54:45;;;;;;;1.60;1.20;;;10.60;98.20;;;;;;4990855;28;20516;-80
2021/05/20 01:57:11;;;;;;;1.50;1.10;;;10.50;98.20;;;;;;4982657;28;20482;-80
2021/05/20 01:59:38;;;;;;;1.57;1.10;;;10.50;98.20;;;;;;4995100;28;20863;-80
2021/05/20 02:02:04;;;;;;;1.50;1.10;;;10.40;98.20;;;;;;4990930;28;20492;-80
2021/05/20 02:04:30;;;;;;;1.50;1.10;;;10.40;98.20;;;;;;4991882;28;20477;-80
2021/05/20 02:06:57;;;;;;;1.50;1.10;;;10.30;98.20;;;;;;4989240;28;20494;-80
2021/05/20 02:09:23;;;;;;;1.50;1.13;;;10.30;98.20;;;;;;4998531;28;20480;-80
2021/05/20 02:11:50;;;;;;;1.60;1.20;;;10.20;98.20;;;;;;4989133;28;20481;-80
2021/05/20 02:14:17;;;;;;;1.60;1.20;;;10.20;98.20;;;;;;4994839;28;20457;-80
2021/05/20 02:16:44;;;;;;;1.53;1.10;;;10.10;98.20;;;;;;4985691;28;20492;-80
2021/05/20 02:19:10;;;;;;;1.50;1.10;;;10.10;98.20;;;;;;4998316;28;20468;-80
2021/05/20 02:21:36;;;;;;;1.60;1.27;;;10.10;98.20;;;;;;4987150;28;20487;-80
2021/05/20 02:24:04;;;;;;;1.60;1.30;;;10.10;98.20;;;;;;5000472;28;20472;-80
2021/05/20 02:26:30;;;;;;;1.50;1.20;;;10.00;98.20;;;;;;4981380;28;20480;-80
2021/05/20 02:28:58;;;;;;;1.60;1.20;;;10.00;98.20;;;;;;4993421;28;20479;-80
2021/05/20 02:31:24;;;;;;;1.50;1.10;;;10.00;98.20;;;;;;4986623;28;20475;-80
2021/05/20 02:33:50;;;;;;;1.57;1.10;;;10.00;98.20;;;;;;5002821;28;20524;-80
2021/05/20 02:36:17;;;;;;;1.50;1.20;;;10.10;98.20;;;;;;4980707;28;20481;-80
2021/05/20 02:38:43;;;;;;;1.50;1.13;;;10.10;98.20;;;;;;5000034;28;20469;-80
2021/05/20 02:41:09;;;;;;;1.50;1.10;;;10.10;98.20;;;;;;4986612;28;20468;-80
2021/05/20 02:43:36;;;;;;;1.50;1.10;;;10.10;98.20;;;;;;5001349;28;20520;-80
2021/05/20 02:46:04;;;;;;;1.50;1.00;;;10.20;98.20;;;;;;4983247;28;20515;-80
2021/05/20 02:48:30;;;;;;;1.57;1.20;;;10.20;98.20;;;;;;5004479;28;20476;-80
2021/05/20 02:50:56;;;;;;;1.50;1.10;;;10.20;98.20;;;;;;4983298;28;20995;-80
2021/05/20 02:53:23;;;;;;;1.57;1.10;;;10.30;98.20;;;;;;4996267;28;20465;-80
2021/05/20 02:55:49;;;;;;;1.50;1.10;;;10.30;98.20;;;;;;4982815;28;20469;-80
2021/05/20 02:58:18;;;;;;;1.50;1.10;;;10.30;98.20;;;;;;4996013;28;20488;-80
2021/05/20 03:00:46;;;;;;;1.50;1.10;;;10.30;98.20;;;;;;4988050;28;21008;-80
2021/05/20 03:03:14;;;;;;;1.50;1.10;;;10.30;98.20;;;;;;4979636;28;20474;-80
2021/05/20 03:05:41;;;;;;;1.53;1.10;;;10.30;98.20;;;;;;4991586;28;20499;-80
2021/05/20 03:08:09;;;;;;;1.53;1.17;;;10.40;98.20;;;;;;4987284;28;20488;-80
2021/05/20 03:10:35;;;;;;;1.53;1.20;;;10.40;98.20;;;;;;4987319;28;20640;-80
2021/05/20 03:13:02;;;;;;;1.50;1.10;;;10.40;98.20;;;;;;4994579;28;20480;-80
2021/05/20 03:15:28;;;;;;;1.53;1.10;;;10.40;98.20;;;;;;4989644;28;20465;-79
2021/05/20 03:17:54;;;;;;;1.50;1.20;;;10.40;98.20;;;;;;4989730;28;20476;-80
2021/05/20 03:20:22;;;;;;;1.50;1.10;;;10.40;98.20;;;;;;4988518;28;20496;-80
2021/05/20 03:22:48;;;;;;;1.50;1.10;;;10.40;98.20;;;;;;4975086;28;20978;-80
2021/05/20 03:25:17;;;;;;;1.50;1.10;;;10.40;98.20;;;;;;4991288;28;21001;-80
2021/05/20 03:27:43;;;;;;;1.57;1.10;;;10.40;98.20;;;;;;4987311;28;20481;-80
2021/05/20 03:30:14;;;;;;;1.53;1.10;;;10.40;98.20;;;;;;4987114;28;20500;-80
2021/05/20 03:32:40;;;;;;;1.50;1.10;;;10.40;98.20;;;;;;4990170;28;20480;-80
2021/05/20 03:35:08;;;;;;;1.50;1.10;;;10.40;98.20;;;;;;4991466;28;20465;-80
2021/05/20 03:37:36;;;;;;;1.50;1.10;;;10.40;98.20;;;;;;4985428;28;20885;-80
2021/05/20 03:40:05;;;;;;;1.53;1.20;;;10.40;98.20;;;;;;4993362;28;20647;-80
2021/05/20 03:42:32;;;;;;;1.50;1.10;;;10.40;98.20;;;;;;4990673;28;20563;-80
2021/05/20 03:44:58;;;;;;;1.57;1.10;;;10.40;98.20;;;;;;4989879;28;20508;-80
2021/05/20 03:47:25;;;;;;;1.50;1.10;;;10.40;98.20;;;;;;4992442;28;20472;-80
2021/05/20 03:49:51;;;;;;;1.50;1.10;;;10.40;98.20;;;;;;4991504;28;21070;-80
2021/05/20 03:52:18;;;;;;;1.50;1.10;;;10.40;98.20;;;;;;4990933;28;20476;-80
2021/05/20 03:54:45;;;;;;;1.50;1.10;;;10.30;98.20;;;;;;4993129;28;20461;-80
2021/05/20 03:57:11;;;;;;;1.50;1.23;;;10.30;98.20;;;;;;4990866;28;20969;-80
2021/05/20 03:59:38;;;;;;;1.50;1.10;;;10.30;98.20;;;;;;4995197;28;20493;-80
2021/05/20 04:02:05;;;;;;;1.50;1.10;;;10.30;98.20;;;;;;4991986;28;20554;-80
2021/05/20 04:04:31;;;;;;;1.50;1.03;;;10.30;98.20;;;;;;4992978;28;20770;-80
2021/05/20 04:06:57;;;;;;;1.50;1.10;;;10.30;98.20;;;;;;4988429;28;20512;-80
2021/05/20 04:09:24;;;;;;;1.50;1.20;;;10.30;98.20;;;;;;4994207;28;20480;-79
2021/05/20 04:11:51;;;;;;;1.53;1.10;;;10.30;98.20;;;;;;4992867;28;20484;-80
2021/05/20 04:14:17;;;;;;;1.50;1.20;;;10.30;98.20;;;;;;4994696;28;20463;-80
2021/05/20 04:16:43;;;;;;;1.50;1.10;;;10.20;98.20;;;;;;4975996;28;20482;-80
2021/05/20 04:19:10;;;;;;;1.50;1.10;;;10.20;98.20;;;;;;4991254;28;20469;-80
2021/05/20 04:21:37;;;;;;;1.50;1.00;;;10.20;98.20;;;;;;4986426;28;20480;-80
2021/05/20 04:24:04;;;;;;;1.50;1.10;;;10.20;98.20;;;;;;4988596;28;21023;-80
2021/05/20 04:26:30;;;;;;;1.50;1.10;;;10.20;98.20;;;;;;4984141;28;20510;-79
2021/05/20 04:28:57;;;;;;;1.50;1.10;;;10.20;98.20;;;;;;4992038;28;20548;-79
2021/05/20 04:31:26;;;;;;;1.50;1.10;;;10.20;98.20;;;;;;4983650;28;20526;-79
2021/05/20 04:33:53;;;;;;;1.53;1.20;;;10.30;98.20;;;;;;5000496;28;20465;-80
2021/05/20 04:36:19;;;;;;;1.50;1.10;;;10.30;98.20;;;;;;4983003;28;20471;-80
2021/05/20 04:38:48;;;;;;;1.50;1.10;;;10.30;98.20;;;;;;5000565;28;20669;-79
2021/05/20 04:41:14;;;;;;;1.50;1.10;;;10.30;98.20;;;;;;4982669;28;21014;-80
2021/05/20 04:43:41;;;;;;;1.50;1.10;;;10.40;98.20;;;;;;5000688;28;20468;-79
2021/05/20 04:46:08;;;;;;;1.50;1.10;;;10.40;98.20;;;;;;4979276;28;20488;-80
2021/05/20 04:48:34;;;;;;;1.50;1.17;;;10.40;98.20;;;;;;5000532;28;20556;-80
2021/05/20 04:51:01;;;;;;;1.50;1.10;;;10.50;98.20;;;;;;4984223;28;20576;-80
2021/05/20 04:53:28;;;;;;;1.50;1.07;;;10.50;98.20;;;;;;5003812;28;20465;-79
2021/05/20 04:55:55;;;;;;;1.50;1.10;;;10.50;98.20;;;;;;4979513;28;20500;-79
2021/05/20 04:58:21;;;;;;;1.50;1.00;;;10.50;98.20;;;;;;5000430;28;20539;-79
2021/05/20 05:00:48;;;;;;;1.50;1.00;;;10.50;98.20;;;;;;4978382;28;20545;-80
2021/05/20 05:03:15;;;;;;;1.50;1.10;;;10.60;98.20;;;;;;5001286;28;21395;-80
2021/05/20 05:05:42;;;;;;;1.50;1.10;;;10.50;98.20;;;;;;4991297;28;20471;-79
2021/05/20 05:08:08;;;;;;;1.50;1.10;;;10.50;98.20;;;;;;4990375;28;20915;-78
2021/05/20 05:10:34;;;;;;;1.50;1.10;;;10.50;98.20;;;;;;4990345;28;20512;-80
2021/05/20 05:13:04;;;;;;;1.50;1.10;;;10.50;98.20;;;;;;4993885;28;20494;-80
2021/05/20 05:15:31;;;;;;;1.53;1.20;;;10.60;98.20;;;;;;4990181;28;20469;-80
2021/05/20 05:17:57;;;;;;;1.50;1.10;;;10.60;98.20;;;;;;4991826;28;20583;-80
2021/05/20 05:20:24;;;;;;;1.50;1.10;;;10.60;98.20;;;;;;4989997;28;20485;-80
2021/05/20 05:22:51;;;;;;;1.50;1.10;;;10.70;98.20;;;;;;4989602;28;20471;-80
2021/05/20 05:25:17;;;;;;;1.57;1.10;;;10.70;98.20;;;;;;4990601;28;20650;-80
2021/05/20 05:27:43;;;;;;;1.50;1.10;;;10.70;98.20;;;;;;4995037;28;20480;-80
2021/05/20 05:30:11;;;;;;;1.50;1.10;;;10.70;98.20;;;;;;4988981;28;20539;-80
2021/05/20 05:32:38;;;;;;;1.50;1.10;;;10.80;98.20;;;;;;4993301;28;20491;-80
2021/05/20 05:35:05;;;;;;;1.50;1.10;;;10.80;98.20;;;;;;4990629;28;20493;-80
2021/05/20 05:37:32;;;;;;;1.50;1.10;;;10.90;98.20;;;;;;4992765;28;20475;-80
2021/05/20 05:39:58;;;;;;;1.53;1.10;;;10.90;98.20;;;;;;4991746;28;20497;-80
2021/05/20 05:42:25;;;;;;;1.50;1.10;;;11.00;98.20;;;;;;4991390;28;21042;-81
2021/05/20 05:44:51;;;;;;;1.50;1.10;;;11.00;98.20;;;;;;4992271;28;20834;-80
2021/05/20 05:47:21;;;;;;;1.53;1.10;;;11.00;98.20;;;;;;4993211;28;20618;-80
2021/05/20 05:49:49;;;;;;;1.50;1.10;;;11.00;98.20;;;;;;4991542;28;20564;-80
2021/05/20 05:52:19;;;;;;;1.50;1.00;;;11.10;98.20;;;;;;4976507;28;20493;-80
2021/05/20 05:54:46;;;;;;;1.50;1.03;;;11.10;98.20;;;;;;4991203;28;20527;-80
2021/05/20 05:57:15;;;;;;;1.50;1.00;;;11.10;98.20;;;;;;4996242;28;20522;-81
2021/05/20 05:59:41;;;;;;;5.40;2.97;;;11.10;98.20;;;;;;4994748;28;20694;-81
2021/05/20 06:02:08;;;;;;;1.50;1.10;;;11.20;98.20;;;;;;4992159;28;20485;-80
2021/05/20 06:04:34;;;;;;;1.50;1.10;;;11.20;98.20;;;;;;4997531;28;20473;-79
2021/05/20 06:07:01;;;;;;;1.50;1.00;;;11.20;98.20;;;;;;4988197;28;20489;-80
2021/05/20 06:09:29;;;;;;;1.50;1.00;;;11.20;98.20;;;;;;4997399;28;20572;-80
2021/05/20 06:11:56;;;;;;;1.50;1.00;;;11.30;98.20;;;;;;4991614;28;20990;-79
2021/05/20 06:14:23;;;;;;;1.50;1.10;;;11.30;98.20;;;;;;4997038;28;20468;-80
2021/05/20 06:16:54;;;;;;;1.50;1.07;;;11.30;98.20;;;;;;4990258;28;20484;-80
2021/05/20 06:19:20;;;;;;;1.50;1.00;;;11.30;98.20;;;;;;4999487;28;20568;-80
2021/05/20 06:21:47;;;;;;;1.57;1.10;;;11.30;98.20;;;;;;4986234;28;20547;-80
2021/05/20 06:24:26;;;;;;;1.50;1.10;;;11.40;98.20;;;;;;4999016;28;20477;-80
2021/05/20 06:26:52;;;;;;;1.50;1.00;;;11.40;98.20;;;;;;4984737;28;20536;-82
2021/05/20 06:29:19;;;;;;;1.50;1.10;;;11.50;98.20;;;;;;4994539;28;20833;-81
2021/05/20 06:31:46;;;;;;;1.50;1.00;;;11.60;98.20;;;;;;4991034;28;20800;-80
2021/05/20 06:34:12;;;;;;;1.50;1.00;;;11.70;98.20;;;;;;4994454;28;20479;-80
2021/05/20 06:36:39;;;;;;;1.57;1.10;;;11.80;98.20;;;;;;4982018;28;20507;-80
2021/05/20 06:39:06;;;;;;;1.57;1.10;;;11.90;98.20;;;;;;4990488;28;20970;-81
2021/05/20 06:41:32;;;;;;;1.50;1.10;;;12.00;98.20;;;;;;4988110;28;20514;-80
2021/05/20 06:43:58;;;;;;;1.53;1.10;;;12.10;98.20;;;;;;4999126;28;20456;-81
2021/05/20 06:46:26;;;;;;;1.60;1.10;;;12.20;98.20;;;;;;4983021;28;20484;-81
2021/05/20 06:48:54;;;;;;;1.50;1.00;;;12.20;98.20;;;;;;4987837;28;20488;-80
2021/05/20 06:51:20;;;;;;;1.50;1.00;;;12.30;98.20;;;;;;4986559;28;20889;-80
2021/05/20 06:53:48;;;;;;;1.53;1.10;;;12.30;98.20;;;;;;5003527;28;20469;-80
2021/05/20 06:56:18;;;;;;;1.50;0.97;;;12.30;98.20;;;;;;4987645;28;20472;-80
2021/05/20 07:01:30;;;;;;;1.50;1.00;;;12.30;98.20;;;;;;4983701;28;20506;-81
2021/05/20 07:03:56;;;;;;;1.50;1.00;;;12.30;98.20;;;;;;5001015;28;20540;-81
2021/05/20 07:06:23;;;;;;;1.50;1.00;;;12.40;98.20;;;;;;4985867;28;20884;-81
2021/05/20 07:08:49;;;;;;;1.50;1.00;;;12.40;98.20;;;;;;5007156;28;20465;-80
2021/05/20 07:11:16;;;;;;;1.50;1.00;;;12.50;98.20;;;;;;4985150;28;20487;-81
2021/05/20 07:13:43;;;;;;;1.50;1.00;;;12.50;98.20;;;;;;5003501;28;20492;-81
2021/05/20 07:16:09;;;;;;;1.50;1.00;;;12.50;98.20;;;;;;4984328;28;20480;-81
2021/05/20 07:18:37;;;;;;;1.50;1.00;;;12.50;98.20;;;;;;5000334;28;20491;-81
2021/05/20 07:21:03;;;;;;;1.50;1.07;;;12.50;98.20;;;;;;4985274;28;20493;-81
2021/05/20 07:23:30;;;;;;;1.50;1.00;;;12.60;98.20;;;;;;5003930;28;20543;-81
2021/05/20 07:25:56;;;;;;;1.50;1.00;;;12.60;98.20;;;;;;4982741;28;20469;-81
2021/05/20 07:28:23;;;;;;;1.60;1.13;;;12.60;98.20;;;;;;4998989;28;20461;-82
2021/05/20 07:30:49;;;;;;;1.50;1.00;;;12.60;98.20;;;;;;4982829;28;20543;-81
2021/05/20 07:33:16;;;;;;;1.50;1.00;;;12.60;98.20;;;;;;5001861;28;20457;-80
2021/05/20 07:35:44;;;;;;;1.50;1.00;;;12.70;98.20;;;;;;4990994;28;20915;-80
2021/05/20 07:38:10;;;;;;;1.50;1.00;;;12.70;98.20;;;;;;4996882;28;20829;-80
2021/05/20 07:40:39;;;;;;;1.50;1.00;;;12.70;98.20;;;;;;4990308;28;20484;-81
2021/05/20 07:43:06;;;;;;;1.50;1.00;;;12.80;98.20;;;;;;4991288;28;20491;-82
2021/05/20 07:45:32;;;;;;;1.50;1.00;;;12.80;98.20;;;;;;4993593;28;20469;-82
2021/05/20 07:47:58;;;;;;;1.50;1.00;;;12.90;98.20;;;;;;4993954;28;20499;-80
2021/05/20 07:50:25;;;;;;;1.53;1.00;;;12.90;98.20;;;;;;4988808;28;20527;-80
2021/05/20 07:52:52;;;;;;;1.50;1.00;;;13.00;98.20;;;;;;4972276;28;21279;-79
2021/05/20 07:55:18;;;;;;;1.50;1.00;;;13.10;98.20;;;;;;4989028;28;20556;-80
2021/05/20 07:57:45;;;;;;;1.50;1.03;;;13.20;98.20;;;;;;4977642;28;20477;-80
2021/05/20 08:00:13;;;;;;;1.50;1.10;;;13.30;98.20;;;;;;4989275;28;20496;-80
2021/05/20 08:02:47;;;;;;;1.50;1.00;;;13.40;98.20;;;;;;4990570;28;21005;-80
2021/05/20 08:05:21;;;;;;;1.50;1.00;;;13.50;98.20;;;;;;4988707;28;20530;-81
2021/05/20 08:07:52;;;;;;;1.50;1.00;;;13.50;98.20;;;;;;4992612;28;20487;-81
2021/05/20 08:13:03;;;;;;;1.50;1.00;;;13.70;98.20;;;;;;4992821;28;20486;-81
2021/05/20 08:15:30;;;;;;;1.50;1.00;;;13.80;98.20;;;;;;4992364;28;20512;-80
2021/05/20 08:17:57;;;;;;;1.50;1.00;;;13.90;98.20;;;;;;4994300;28;20488;-80
2021/05/20 08:20:26;;;;;;;1.57;1.00;;;14.00;98.20;;;;;;4990497;28;20887;-80
2021/05/20 08:22:53;;;;;;;1.50;1.00;;;14.10;98.20;;;;;;4993789;28;20499;-80
2021/05/20 08:25:23;;;;;;;3.20;1.97;;;14.20;98.20;;;;;;4988198;28;20480;-81
2021/05/20 08:27:50;;;;;;;1.50;1.00;;;14.30;98.20;;;;;;4995879;28;20495;-78
2021/05/20 08:30:21;;;;;;;1.60;1.00;;;14.40;98.20;;;;;;4990549;28;21074;-81
2021/05/20 08:32:48;;;;;;;1.50;1.00;;;14.50;97.40;;;;;;4996440;28;20483;-79
2021/05/20 08:35:18;;;;;;;1.50;1.00;;;14.70;97.20;;;;;;4990062;28;20519;-80
2021/05/20 08:37:45;;;;;;;1.57;1.00;;;14.80;95.60;;;;;;4996873;28;20488;-82
2021/05/20 08:40:13;;;;;;;1.50;0.90;;;15.00;95.10;;;;;;4992031;28;20481;-79
2021/05/20 08:42:41;;;;;;;1.50;1.00;;;15.20;94.80;;;;;;4997236;28;20558;-81
2021/05/20 08:45:10;;;;;;;1.57;0.97;;;15.50;94.10;;;;;;4993826;28;20475;-82
2021/05/20 08:47:36;;;;;;;1.50;1.00;;;15.80;93.00;;;;;;4980666;28;20568;-80
2021/05/20 08:50:04;;;;;;;1.53;1.00;;;16.00;92.90;;;;;;4987195;28;20481;-80
2021/05/20 08:52:31;;;;;;;1.50;1.00;;;16.30;92.70;;;;;;4995782;28;20484;-78
2021/05/20 08:54:58;;;;;;;1.50;0.90;;;16.60;90.10;;;;;;4994041;28;20507;-79
2021/05/20 08:57:25;;;;;;;1.50;0.90;;;16.80;90.30;;;;;;4979596;28;20568;-78
2021/05/20 08:59:52;;;;;;;1.50;0.90;;;16.90;89.00;;;;;;4986084;28;20476;-78
2021/05/20 09:02:26;;;;;;;1.50;1.00;;;16.90;89.00;;;;;;4987244;28;20488;-78
2021/05/20 09:05:00;;;;;;;1.50;0.90;;;17.00;88.50;;;;;;4987237;28;20457;-79
2021/05/20 09:07:35;;;;;;;1.57;1.00;;;16.90;88.50;;;;;;4992756;28;21022;-79
2021/05/20 09:10:09;;;;;;;1.50;0.90;;;17.00;89.30;;;;;;4992093;28;20566;-79
2021/05/20 09:12:36;;;;;;;1.53;0.90;;;17.20;89.20;;;;;;4991193;28;20569;-79
2021/05/20 09:15:13;;;;;;;1.50;0.90;;;17.30;87.20;;;;;;4992573;28;20469;-80
2021/05/20 09:17:39;;;;;;;1.50;0.90;;;17.40;88.40;;;;;;4992357;28;20909;-78
2021/05/20 09:20:07;;;;;;;1.50;0.90;;;17.60;88.30;;;;;;4992246;28;20581;-79
2021/05/20 09:22:35;;;;;;;1.50;0.90;;;17.70;87.80;;;;;;4992381;28;20972;-78
2021/05/20 09:25:03;;;;;;;1.50;0.90;;;17.90;87.60;;;;;;4992663;28;20461;-80
2021/05/20 09:27:34;;;;;;;1.53;0.90;;;18.10;86.70;;;;;;4997239;28;20577;-77
2021/05/20 09:30:16;;;;;;;1.50;0.90;;;18.30;85.10;;;;;;4995151;28;20496;-78
2021/05/20 09:32:46;;;;;;;1.50;0.90;;;18.50;85.80;;;;;;4998125;28;20480;-78
2021/05/20 09:35:14;;;;;;;1.50;0.90;;;18.90;84.50;;;;;;4993854;28;20971;-79
2021/05/20 09:37:49;;;;;;;1.53;0.90;;;19.10;84.50;;;;;;4995805;28;20523;-78
2021/05/20 09:40:17;;;;;;;1.50;0.90;;;19.40;82.80;;;;;;4994453;28;20646;-78
2021/05/20 09:42:45;;;;;;;1.50;0.90;;;19.40;81.70;;;;;;4978826;28;20480;-77
2021/05/20 09:45:16;;;;;;;1.50;0.90;;;19.60;83.90;;;;;;4991891;28;20464;-78
2021/05/20 09:47:43;;;;;;;1.70;1.10;;;19.90;84.00;;;;;;4981907;28;20892;-79
2021/05/20 09:50:15;;;;;;;1.50;0.90;;;20.00;82.60;;;;;;4991462;28;20859;-78
2021/05/20 09:52:41;;;;;;;1.50;0.90;;;19.90;80.80;;;;;;4993485;28;20955;-78
2021/05/20 09:55:24;;;;;;;1.50;0.90;;;19.70;81.70;;;;;;4994504;28;20495;-78
2021/05/20 09:57:51;;;;;;;1.50;0.90;;;19.70;83.00;;;;;;4989125;28;20479;-78
2021/05/20 10:00:20;;;;;;;1.50;0.90;;;19.80;82.20;;;;;;4991097;28;20500;-79
2021/05/20 10:02:48;;;;;;;1.50;0.90;;;19.80;81.20;;;;;;4997986;28;20563;-78
2021/05/20 10:05:27;;;;;;;1.50;0.90;;;20.00;80.30;;;;;;4992937;28;20958;-79
2021/05/20 10:07:55;;;;;;;1.50;0.90;;;20.10;81.30;;;;;;4994238;28;20483;-78
2021/05/20 10:10:21;;;;;;;1.50;0.90;;;20.30;80.00;;;;;;4992448;28;20616;-76
2021/05/20 10:12:48;;;;;;;1.50;0.90;;;20.70;79.90;;;;;;4995566;28;20471;-77
2021/05/20 10:15:16;;;;;;;1.50;0.90;;;20.80;78.50;;;;;;4991788;28;20552;-78
2021/05/20 10:17:45;;;;;;;1.50;0.90;;;20.70;78.40;;;;;;4982658;28;20488;-78
2021/05/20 10:20:16;;;;;;;1.50;0.90;;;20.60;79.60;;;;;;4994569;28;20621;-79
2021/05/20 10:22:43;;;;;;;1.50;0.90;;;20.80;79.30;;;;;;4983301;28;20477;-79
2021/05/20 10:25:11;;;;;;;1.50;0.90;;;21.00;78.80;;;;;;4993549;28;20468;-77
2021/05/20 10:27:39;;;;;;;1.50;1.00;;;21.00;77.50;;;;;;4995707;28;20475;-79
2021/05/20 10:30:08;;;;;;;1.50;0.90;;;21.10;76.40;;;;;;4995317;28;20485;-80
2021/05/20 10:32:34;;;;;;;1.50;0.90;;;21.30;77.60;;;;;;4996769;28;20570;-78
2021/05/20 10:35:04;;;;;;;1.50;0.90;;;21.30;75.40;;;;;;4992430;28;20477;-77
2021/05/20 10:37:37;;;;;;;1.50;0.90;;;21.20;75.70;;;;;;4991002;28;20480;-78
2021/05/20 10:40:10;;;;;;;1.50;0.90;;;21.30;76.10;;;;;;4991830;28;20941;-79
2021/05/20 10:42:41;;;;;;;1.50;0.90;;;21.30;74.60;;;;;;4998841;28;20483;-78
2021/05/20 10:45:17;;;;;;;1.50;0.90;;;21.10;76.20;;;;;;5002087;28;20461;-79
2021/05/20 10:48:18;;;;;;;1.50;1.00;;;20.70;75.50;;;;;;4999928;28;20513;-79
2021/05/20 10:51:15;;;;;;;1.50;0.90;;;20.60;77.10;;;;;;4994902;28;20505;-78
2021/05/20 10:54:10;;;;;;;1.50;0.90;;;20.50;77.30;;;;;;4984165;28;20516;-79
2021/05/20 10:56:53;;;;;;;1.50;0.90;;;20.40;76.90;;;;;;4989822;28;20689;-79
2021/05/20 10:59:45;;;;;;;1.50;0.90;;;20.10;77.40;;;;;;4995843;28;20559;-78
2021/05/20 11:02:16;;;;;;;1.50;0.90;;;20.00;77.30;;;;;;4988296;28;20476;-77
2021/05/20 11:04:44;;;;;;;1.50;0.90;;;20.10;77.30;;;;;;4993376;28;20847;-79
2021/05/20 11:07:12;;;;;;;1.50;0.90;;;20.00;77.70;;;;;;4995697;28;20483;-79
2021/05/20 11:09:46;;;;;;;1.50;0.90;;;20.00;76.60;;;;;;4993611;28;20495;-80
2021/05/20 11:12:15;;;;;;;1.50;0.90;;;19.90;76.80;;;;;;4976002;28;20489;-78
2021/05/20 11:14:51;;;;;;;1.50;0.90;;;19.70;77.70;;;;;;4988915;28;20503;-78
2021/05/20 11:17:39;;;;;;;1.50;0.90;;;19.60;77.30;;;;;;4977153;28;20929;-77
2021/05/20 11:20:29;;;;;;;1.50;0.90;;;19.50;77.50;;;;;;4988051;28;20485;-78
2021/05/20 11:23:26;;;;;;;1.50;0.90;;;19.60;77.00;;;;;;4995078;28;20468;-78
2021/05/20 11:26:09;;;;;;;1.50;0.90;;;20.00;76.50;;;;;;4979738;28;20469;-79
2021/05/20 11:28:58;;;;;;;1.50;0.90;;;20.10;77.00;;;;;;5003313;28;20548;-78
2021/05/20 11:31:27;;;;;;;1.50;0.90;;;20.40;76.30;;;;;;4981734;28;20525;-77
2021/05/20 11:34:06;;;;;;;1.50;0.90;;;20.70;76.10;;;;;;4993701;28;20804;-79
2021/05/20 11:36:43;;;;;;;1.50;0.90;;;21.10;76.00;;;;;;4984949;28;20480;-79
2021/05/20 11:39:14;;;;;;;1.50;0.90;;;21.40;75.00;;;;;;4996507;28;20764;-78
2021/05/20 11:41:42;;;;;;;1.50;0.90;;;21.70;73.30;;;;;;4981237;28;20579;-77
2021/05/20 11:44:12;;;;;;;1.50;0.90;;;21.70;72.50;;;;;;4995214;28;21021;-78
2021/05/20 11:46:41;;;;;;;1.50;0.90;;;21.70;73.10;;;;;;4984022;28;20476;-78
2021/05/20 11:49:24;;;;;;;1.60;1.40;;;21.80;74.00;;;;;;4996236;28;20556;-78
2021/05/20 11:51:53;;;;;;;1.50;0.90;;;22.00;71.80;;;;;;4985402;28;20484;-78
2021/05/20 11:54:23;;;;;;;1.47;0.87;;;22.00;71.90;;;;;;4989180;28;20895;-76
2021/05/20 11:56:52;;;;;;;1.50;1.00;;;22.10;71.70;;;;;;4986339;28;20615;-78
2021/05/20 11:59:25;;;;;;;1.50;0.90;;;22.10;72.50;;;;;;4993481;28;20457;-77
2021/05/20 12:01:51;;;;;;;1.50;0.90;;;22.20;69.60;;;;;;4987298;28;20483;-79
2021/05/20 12:04:19;;;;;;;1.43;0.90;;;22.40;69.90;;;;;;4994038;28;20504;-78
2021/05/20 12:06:52;;;;;;;1.47;0.87;;;22.40;71.10;;;;;;4981688;28;20480;-77
2021/05/20 12:09:18;;;;;;;1.50;0.90;;;22.50;68.40;;;;;;4981806;28;20547;-78
2021/05/20 12:11:46;;;;;;;1.50;0.90;;;22.70;69.00;;;;;;4979560;28;21122;-78
2021/05/20 12:14:30;;;;;;;1.80;1.10;;;22.80;68.30;;;;;;4993755;28;20731;-79
2021/05/20 12:17:06;;;;;;;1.47;0.90;;;22.90;69.70;;;;;;4986133;28;20521;-77
2021/05/20 12:19:35;;;;;;;1.50;0.90;;;23.20;68.00;;;;;;4990926;28;20494;-78
2021/05/20 12:22:04;;;;;;;1.50;0.90;;;23.50;67.40;;;;;;4982856;28;20483;-77
2021/05/20 12:24:32;;;;;;;1.50;0.90;;;23.60;64.90;;;;;;4987949;28;20551;-78
2021/05/20 12:27:07;;;;;;;1.50;0.90;;;23.80;65.90;;;;;;4987591;28;20516;-78
2021/05/20 12:29:34;;;;;;;1.50;0.90;;;23.80;65.70;;;;;;4993731;28;21078;-79
2021/05/20 12:32:00;;;;;;;1.50;0.90;;;23.70;65.10;;;;;;4989143;28;20488;-76
2021/05/20 12:34:26;;;;;;;1.50;0.90;;;23.60;66.40;;;;;;4994571;28;20922;-78
2021/05/20 12:37:02;;;;;;;1.50;0.80;;;23.50;66.40;;;;;;4979687;28;20483;-77
2021/05/20 12:39:30;;;;;;;1.40;0.83;;;23.50;64.30;;;;;;4987904;28;20554;-79
2021/05/20 12:41:57;;;;;;;1.43;0.80;;;23.40;65.50;;;;;;4986775;28;20496;-77
2021/05/20 12:44:25;;;;;;;1.50;0.80;;;23.30;64.60;;;;;;4992516;28;20473;-78
2021/05/20 12:46:51;;;;;;;1.40;0.80;;;23.20;65.20;;;;;;4981328;28;20890;-78
2021/05/20 12:49:22;;;;;;;1.50;0.80;;;23.30;65.40;;;;;;4987316;28;20479;-78
2021/05/20 12:51:59;;;;;;;1.50;0.90;;;23.30;67.00;;;;;;4978978;28;20481;-78
2021/05/20 12:54:28;;;;;;;1.50;0.90;;;23.20;66.30;;;;;;4984054;28;20471;-78
2021/05/20 12:57:06;;;;;;;1.50;0.90;;;23.00;66.70;;;;;;4991238;28;20910;-78
2021/05/20 12:59:39;;;;;;;1.43;0.90;;;22.70;68.10;;;;;;4992452;28;20611;-77
2021/05/20 13:02:14;;;;;;;1.50;0.90;;;22.50;67.80;;;;;;4992592;28;20527;-77
2021/05/20 13:04:41;;;;;;;1.50;0.90;;;22.30;66.90;;;;;;4999072;28;20859;-78